createdAt,value
2017-09-11T00:02:11.522Z,14.10
2017-09-11T00:04:38.028Z,14.00
2017-09-11T00:07:04.385Z,14.10
2017-09-11T00:09:30.722Z,14.10
2017-09-11T00:11:57.799Z,14.00
2017-09-11T00:14:24.224Z,14.00
2017-09-11T00:16:50.595Z,14.00
2017-09-11T00:19:16.961Z,14.10
2017-09-11T00:21:43.305Z,14.20
2017-09-11T00:24:09.654Z,14.00
2017-09-11T00:26:39.005Z,14.00
2017-09-11T00:29:05.695Z,14.00
2017-09-11T00:31:31.876Z,14.10
2017-09-11T00:33:58.066Z,14.10
2017-09-11T00:36:24.263Z,14.10
2017-09-11T00:38:53.684Z,14.20
2017-09-11T00:41:19.873Z,14.20
2017-09-11T00:43:46.790Z,14.30
2017-09-11T00:46:13.710Z,14.20
2017-09-11T00:48:40.662Z,14.30
2017-09-11T00:51:06.833Z,14.30
2017-09-11T00:53:33.011Z,14.20
2017-09-11T00:55:59.204Z,14.20
2017-09-11T00:58:25.419Z,14.30
2017-09-11T01:00:51.557Z,14.50
2017-09-11T01:03:17.732Z,14.30
2017-09-11T01:05:44.667Z,14.10
2017-09-11T01:08:10.886Z,14.10
2017-09-11T01:10:37.073Z,14.20
2017-09-11T01:13:04.032Z,14.20
2017-09-11T01:15:30.306Z,14.30
2017-09-11T01:17:56.497Z,14.10
2017-09-11T01:20:22.674Z,14.10
2017-09-11T01:22:49.608Z,14.30
2017-09-11T01:25:15.781Z,14.30
2017-09-11T01:27:42.689Z,14.20
2017-09-11T01:30:08.891Z,14.20
2017-09-11T01:32:35.058Z,14.20
2017-09-11T01:35:01.268Z,14.10
2017-09-11T01:37:27.491Z,14.10
2017-09-11T01:39:53.657Z,14.00
2017-09-11T01:42:19.833Z,14.10
2017-09-11T01:44:46.017Z,14.00
2017-09-11T01:47:12.153Z,14.00
2017-09-11T01:49:38.309Z,14.00
2017-09-11T01:52:04.462Z,14.00
2017-09-11T01:54:30.631Z,13.90
2017-09-11T01:56:56.761Z,14.10
2017-09-11T01:59:22.900Z,13.90
2017-09-11T02:01:49.085Z,13.80
2017-09-11T02:04:15.258Z,13.70
2017-09-11T02:06:42.158Z,13.70
2017-09-11T02:09:08.285Z,13.90
2017-09-11T02:11:34.652Z,13.90
2017-09-11T02:14:01.105Z,13.80
2017-09-11T02:16:27.278Z,13.80
2017-09-11T02:18:54.357Z,13.80
2017-09-11T02:21:20.553Z,13.90
2017-09-11T02:23:46.756Z,13.80
2017-09-11T02:26:12.928Z,13.80
2017-09-11T02:28:39.262Z,13.80
2017-09-11T02:31:05.602Z,13.90
2017-09-11T02:33:31.962Z,14.10
2017-09-11T02:35:58.320Z,14.30
2017-09-11T02:38:25.391Z,13.90
2017-09-11T02:40:51.733Z,13.90
2017-09-11T02:43:18.106Z,14.20
2017-09-11T02:45:44.429Z,14.00
2017-09-11T02:48:10.782Z,14.20
2017-09-11T02:50:37.091Z,14.00
2017-09-11T02:53:03.438Z,14.00
2017-09-11T02:55:29.764Z,14.10
2017-09-11T02:57:56.873Z,14.00
2017-09-11T03:00:23.989Z,14.10
2017-09-11T03:02:50.512Z,14.40
2017-09-11T03:05:16.866Z,14.10
2017-09-11T03:07:43.973Z,14.00
2017-09-11T03:10:11.069Z,14.00
2017-09-11T03:12:37.408Z,14.40
2017-09-11T03:15:03.782Z,14.10
2017-09-11T03:17:30.155Z,14.00
2017-09-11T03:19:56.542Z,13.90
2017-09-11T03:22:22.939Z,14.20
2017-09-11T03:24:49.265Z,14.10
2017-09-11T03:27:17.695Z,14.20
2017-09-11T03:29:44.897Z,14.00
2017-09-11T03:32:11.254Z,14.40
2017-09-11T03:34:38.346Z,13.80
2017-09-11T03:37:04.812Z,14.30
2017-09-11T03:39:31.506Z,13.80
2017-09-11T03:41:57.849Z,13.90
2017-09-11T03:44:25.863Z,13.90
2017-09-11T03:46:52.217Z,13.80
2017-09-11T03:49:18.549Z,13.70
2017-09-11T03:51:44.968Z,13.70
2017-09-11T03:54:11.360Z,14.10
2017-09-11T03:56:38.341Z,14.10
2017-09-11T03:59:04.669Z,14.00
2017-09-11T04:01:30.995Z,14.10
2017-09-11T04:03:57.328Z,14.30
2017-09-11T04:06:24.434Z,14.00
2017-09-11T04:08:50.806Z,14.10
2017-09-11T04:11:17.163Z,13.90
2017-09-11T04:13:43.543Z,14.30
2017-09-11T04:16:12.758Z,14.00
2017-09-11T04:18:39.966Z,13.90
2017-09-11T04:21:06.325Z,13.90
2017-09-11T04:23:32.653Z,13.90
2017-09-11T04:25:58.981Z,14.30
2017-09-11T04:28:25.829Z,14.50
2017-09-11T04:30:51.979Z,13.90
2017-09-11T04:33:18.122Z,14.10
2017-09-11T04:35:45.083Z,13.70
2017-09-11T04:38:11.240Z,14.00
2017-09-11T04:40:37.588Z,13.70
2017-09-11T04:43:05.952Z,13.60
2017-09-11T04:45:32.122Z,13.60
2017-09-11T04:47:58.279Z,13.60
2017-09-11T04:50:24.435Z,13.70
2017-09-11T04:52:50.613Z,13.70
2017-09-11T04:55:16.833Z,13.60
2017-09-11T04:57:43.008Z,13.60
2017-09-11T05:00:12.257Z,13.80
2017-09-11T05:02:39.457Z,13.60
2017-09-11T05:05:05.614Z,13.60
2017-09-11T05:07:31.993Z,13.60
2017-09-11T05:09:58.349Z,13.60
2017-09-11T05:12:24.688Z,13.60
2017-09-11T05:14:51.771Z,13.70
2017-09-11T05:17:18.101Z,13.70
2017-09-11T05:19:44.452Z,13.70
2017-09-11T05:22:10.864Z,13.90
2017-09-11T05:24:37.949Z,13.70
2017-09-11T05:27:04.312Z,13.90
2017-09-11T05:29:33.510Z,13.60
2017-09-11T05:31:59.870Z,13.80
2017-09-11T05:34:26.230Z,13.70
2017-09-11T05:36:53.342Z,13.90
2017-09-11T05:39:19.689Z,13.80
2017-09-11T05:41:46.786Z,13.80
2017-09-11T05:44:13.147Z,13.80
2017-09-11T05:46:39.562Z,13.90
2017-09-11T05:49:05.980Z,13.90
2017-09-11T05:51:32.338Z,14.00
2017-09-11T05:53:59.282Z,13.90
2017-09-11T05:56:26.453Z,14.00
2017-09-11T05:58:52.817Z,14.00
2017-09-11T06:01:19.251Z,14.00
2017-09-11T06:03:46.125Z,14.00
2017-09-11T06:06:12.484Z,14.20
2017-09-11T06:08:38.841Z,14.30
2017-09-11T06:11:05.919Z,14.10
2017-09-11T06:13:32.079Z,14.10
2017-09-11T06:15:58.450Z,14.10
2017-09-11T06:18:25.393Z,14.30
2017-09-11T06:20:51.595Z,14.30
2017-09-11T06:23:17.762Z,14.30
2017-09-11T06:25:43.960Z,14.30
2017-09-11T06:28:10.907Z,14.40
2017-09-11T06:30:37.193Z,14.40
2017-09-11T06:33:03.606Z,14.50
2017-09-11T06:35:29.947Z,14.40
2017-09-11T06:37:56.390Z,14.50
2017-09-11T06:40:22.759Z,14.40
2017-09-11T06:42:49.880Z,14.50
2017-09-11T06:45:16.402Z,14.90
2017-09-11T06:47:42.750Z,14.50
2017-09-11T06:50:09.090Z,14.40
2017-09-11T06:52:35.433Z,14.40
2017-09-11T06:55:01.935Z,15.00
2017-09-11T06:57:28.315Z,14.40
2017-09-11T06:59:55.410Z,14.50
2017-09-11T07:02:21.582Z,14.40
2017-09-11T07:04:47.748Z,14.50
2017-09-11T07:07:13.881Z,14.60
2017-09-11T07:09:40.955Z,14.70
2017-09-11T07:12:19.514Z,14.60
2017-09-11T07:14:45.930Z,14.60
2017-09-11T07:17:12.262Z,14.60
2017-09-11T07:19:38.670Z,14.70
2017-09-11T07:22:05.038Z,14.50
2017-09-11T07:24:31.402Z,14.60
2017-09-11T07:26:58.466Z,15.00
2017-09-11T07:29:24.836Z,15.00
2017-09-11T07:31:51.890Z,15.30
2017-09-11T07:34:18.394Z,15.30
2017-09-11T07:36:45.495Z,15.20
2017-09-11T07:39:11.842Z,15.20
2017-09-11T07:41:38.177Z,15.20
2017-09-11T07:44:05.000Z,15.20
2017-09-11T07:46:31.353Z,15.30
2017-09-11T07:48:57.714Z,15.10
2017-09-11T07:51:24.800Z,15.20
2017-09-11T07:53:51.156Z,15.30
2017-09-11T07:56:17.558Z,15.50
2017-09-11T07:58:43.938Z,15.30
2017-09-11T08:01:12.277Z,15.30
2017-09-11T08:03:38.630Z,15.70
2017-09-11T08:06:05.102Z,15.70
2017-09-11T08:08:31.446Z,15.60
2017-09-11T08:10:57.869Z,15.70
2017-09-11T08:13:24.207Z,15.60
2017-09-11T08:15:50.532Z,15.70
2017-09-11T08:18:16.893Z,15.60
2017-09-11T08:20:43.974Z,16.00
2017-09-11T08:23:10.335Z,16.00
2017-09-11T08:25:36.698Z,16.40
2017-09-11T08:28:02.890Z,16.30
2017-09-11T08:30:29.780Z,17.00
2017-09-11T08:32:55.906Z,16.90
2017-09-11T08:35:25.413Z,17.10
2017-09-11T08:37:52.288Z,17.30
2017-09-11T08:40:19.193Z,17.20
2017-09-11T08:42:45.322Z,17.20
2017-09-11T08:45:11.485Z,17.00
2017-09-11T08:47:37.628Z,16.90
2017-09-11T08:50:03.795Z,16.60
2017-09-11T08:52:30.681Z,16.50
2017-09-11T08:54:56.822Z,16.50
2017-09-11T08:57:23.010Z,16.40
2017-09-11T08:59:49.149Z,16.30
2017-09-11T09:02:15.321Z,16.60
2017-09-11T09:04:41.453Z,16.50
2017-09-11T09:07:07.599Z,16.50
2017-09-11T09:09:36.254Z,16.50
2017-09-11T09:12:02.629Z,16.50
2017-09-11T09:14:28.968Z,16.60
2017-09-11T09:16:55.283Z,16.70
2017-09-11T09:19:21.618Z,16.90
2017-09-11T09:21:47.937Z,17.00
2017-09-11T09:24:14.351Z,17.10
2017-09-11T09:26:47.518Z,17.20
2017-09-11T09:29:13.936Z,17.10
2017-09-11T09:31:40.338Z,17.30
2017-09-11T09:34:06.722Z,17.40
2017-09-11T09:36:33.053Z,17.50
2017-09-11T09:38:59.386Z,17.20
2017-09-11T09:41:25.730Z,17.30
2017-09-11T09:43:52.062Z,17.30
2017-09-11T09:46:18.424Z,17.20
2017-09-11T09:48:44.751Z,17.20
2017-09-11T09:51:11.816Z,17.20
2017-09-11T09:53:38.131Z,17.20
2017-09-11T09:56:04.491Z,17.20
2017-09-11T09:58:30.832Z,17.40
2017-09-11T10:00:57.356Z,17.30
2017-09-11T10:03:23.692Z,17.60
2017-09-11T10:05:51.745Z,18.10
2017-09-11T10:08:18.074Z,17.70
2017-09-11T10:10:44.430Z,17.60
2017-09-11T10:13:10.800Z,17.70
2017-09-11T10:15:37.330Z,17.70
2017-09-11T10:18:03.708Z,17.60
2017-09-11T10:20:30.041Z,17.30
2017-09-11T10:23:01.894Z,17.30
2017-09-11T10:25:28.277Z,17.20
2017-09-11T10:27:54.632Z,17.00
2017-09-11T10:30:21.043Z,16.80
2017-09-11T10:32:48.109Z,16.60
2017-09-11T10:35:14.471Z,16.60
2017-09-11T10:37:41.562Z,16.80
2017-09-11T10:40:07.909Z,16.80
2017-09-11T10:42:34.070Z,16.80
2017-09-11T10:45:01.014Z,17.20
2017-09-11T10:47:27.910Z,17.10
2017-09-11T10:49:54.069Z,17.10
2017-09-11T10:52:20.247Z,17.00
2017-09-11T10:54:46.431Z,17.00
2017-09-11T10:57:12.588Z,16.70
2017-09-11T10:59:38.855Z,15.90
2017-09-11T11:02:04.991Z,15.60
2017-09-11T11:04:31.173Z,15.60
2017-09-11T11:06:57.335Z,15.60
2017-09-11T11:09:23.506Z,15.60
2017-09-11T11:11:49.677Z,15.50
2017-09-11T11:14:17.107Z,15.70
2017-09-11T11:16:43.296Z,15.70
2017-09-11T11:19:09.445Z,15.60
2017-09-11T11:21:35.639Z,15.60
2017-09-11T11:24:01.805Z,15.60
2017-09-11T11:26:28.709Z,15.70
2017-09-11T11:28:54.859Z,16.00
2017-09-11T11:31:21.143Z,16.00
2017-09-11T11:33:48.021Z,16.10
2017-09-11T11:36:14.176Z,16.10
2017-09-11T11:38:40.342Z,16.10
2017-09-11T11:41:06.724Z,16.30
2017-09-11T11:43:33.027Z,16.50
2017-09-11T11:45:59.164Z,16.60
2017-09-11T11:48:25.310Z,16.70
2017-09-11T11:50:56.573Z,16.90
2017-09-11T11:53:23.636Z,17.00
2017-09-11T11:55:50.736Z,17.10
2017-09-11T11:58:17.071Z,17.60
2017-09-11T12:00:44.153Z,17.20
2017-09-11T12:03:10.486Z,17.30
2017-09-11T12:05:36.834Z,17.30
2017-09-11T12:08:03.192Z,16.90
2017-09-11T12:10:29.583Z,17.30
2017-09-11T12:12:55.908Z,17.30
2017-09-11T12:15:22.289Z,17.40
2017-09-11T12:17:48.688Z,17.40
2017-09-11T12:20:14.997Z,17.30
2017-09-11T12:22:41.444Z,17.60
2017-09-11T12:25:07.809Z,17.20
2017-09-11T12:27:34.145Z,17.30
2017-09-11T12:30:02.484Z,17.60
2017-09-11T12:32:28.877Z,17.70
2017-09-11T12:34:55.219Z,18.10
2017-09-11T12:37:21.577Z,17.70
2017-09-11T12:39:47.947Z,17.90
2017-09-11T12:42:14.290Z,18.20
2017-09-11T12:44:40.653Z,18.00
2017-09-11T12:47:07.736Z,18.20
2017-09-11T12:49:34.065Z,18.20
2017-09-11T12:52:01.182Z,18.30
2017-09-11T12:54:27.524Z,18.30
2017-09-11T12:56:53.675Z,18.20
2017-09-11T12:59:19.844Z,18.30
2017-09-11T13:01:45.986Z,18.30
2017-09-11T13:04:12.145Z,18.30
2017-09-11T13:06:39.027Z,18.40
2017-09-11T13:09:09.679Z,18.40
2017-09-11T13:11:36.568Z,18.70
2017-09-11T13:14:02.798Z,18.80
2017-09-11T13:16:28.972Z,18.60
2017-09-11T13:18:55.214Z,18.80
2017-09-11T13:21:21.362Z,18.70
2017-09-11T13:23:48.253Z,18.50
2017-09-11T13:26:14.397Z,18.50
2017-09-11T13:28:46.625Z,18.60
2017-09-11T13:31:12.802Z,18.50
2017-09-11T13:33:38.975Z,18.50
2017-09-11T13:36:05.138Z,18.40
2017-09-11T13:38:31.277Z,18.40
2017-09-11T13:40:57.493Z,18.40
2017-09-11T13:43:23.663Z,18.40
2017-09-11T13:45:56.054Z,18.60
2017-09-11T13:48:22.385Z,18.20
2017-09-11T13:50:48.724Z,18.10
2017-09-11T13:53:15.822Z,18.00
2017-09-11T13:55:42.168Z,18.00
2017-09-11T13:58:09.248Z,18.30
2017-09-11T14:00:35.586Z,18.30
2017-09-11T14:03:03.718Z,18.40
2017-09-11T14:05:30.114Z,18.40
2017-09-11T14:07:56.484Z,18.40
2017-09-11T14:10:22.834Z,18.40
2017-09-11T14:12:49.187Z,18.50
2017-09-11T14:15:15.550Z,18.50
2017-09-11T14:17:41.919Z,18.40
2017-09-11T14:20:11.337Z,18.20
2017-09-11T14:22:37.694Z,18.20
2017-09-11T14:25:04.105Z,18.20
2017-09-11T14:27:31.207Z,18.30
2017-09-11T14:29:57.559Z,18.30
2017-09-11T14:32:24.614Z,18.40
2017-09-11T14:34:54.266Z,18.40
2017-09-11T14:37:20.653Z,18.30
2017-09-11T14:39:46.997Z,18.30
2017-09-11T14:42:13.335Z,18.30
2017-09-11T14:44:39.735Z,18.30
2017-09-11T14:47:06.831Z,18.40
2017-09-11T14:49:33.170Z,18.30
2017-09-11T14:52:05.710Z,18.30
2017-09-11T14:54:32.085Z,18.10
2017-09-11T14:56:59.179Z,18.00
2017-09-11T14:59:25.585Z,17.70
2017-09-11T15:01:51.975Z,18.10
2017-09-11T15:04:18.410Z,18.20
2017-09-11T15:06:45.126Z,18.30
2017-09-11T15:09:12.436Z,18.10
2017-09-11T15:11:38.827Z,18.10
2017-09-11T15:14:05.171Z,18.20
2017-09-11T15:16:31.591Z,18.20
2017-09-11T15:18:58.838Z,18.10
2017-09-11T15:21:25.249Z,18.10
2017-09-11T15:23:51.660Z,18.00
2017-09-11T15:26:18.088Z,18.00
2017-09-11T15:28:44.750Z,18.00
2017-09-11T15:31:11.131Z,18.20
2017-09-11T15:33:37.521Z,18.10
2017-09-11T15:36:03.934Z,18.00
2017-09-11T15:38:44.722Z,18.10
2017-09-11T15:41:13.839Z,18.20
2017-09-11T15:43:40.208Z,18.30
2017-09-11T15:46:07.325Z,18.10
2017-09-11T15:48:34.401Z,18.10
2017-09-11T15:51:00.805Z,18.10
2017-09-11T15:53:36.351Z,18.20
2017-09-11T15:56:02.734Z,18.10
2017-09-11T15:58:36.611Z,18.20
2017-09-11T16:01:03.746Z,17.80
2017-09-11T16:03:30.819Z,17.80
2017-09-11T16:05:57.163Z,17.80
2017-09-11T16:08:23.520Z,17.90
2017-09-11T16:10:49.880Z,17.90
2017-09-11T16:13:16.226Z,17.50
2017-09-11T16:15:43.328Z,17.80
2017-09-11T16:18:09.661Z,17.80
2017-09-11T16:20:36.025Z,17.50
2017-09-11T16:23:02.363Z,17.90
2017-09-11T16:25:28.785Z,17.80
2017-09-11T16:27:55.137Z,17.60
2017-09-11T16:30:22.438Z,17.60
2017-09-11T16:32:48.830Z,17.60
2017-09-11T16:35:15.178Z,17.80
2017-09-11T16:37:41.673Z,17.60
2017-09-11T16:40:08.044Z,17.60
2017-09-11T16:42:35.165Z,17.50
2017-09-11T16:45:01.592Z,17.50
2017-09-11T16:47:27.940Z,17.50
2017-09-11T16:49:54.280Z,17.40
2017-09-11T16:52:20.662Z,17.50
2017-09-11T16:54:47.084Z,17.40
2017-09-11T16:57:14.307Z,17.30
2017-09-11T16:59:40.782Z,17.30
2017-09-11T17:02:07.290Z,17.10
2017-09-11T17:04:33.674Z,16.80
2017-09-11T17:07:00.035Z,16.90
2017-09-11T17:09:26.282Z,16.90
2017-09-11T17:11:52.444Z,16.70
2017-09-11T17:14:18.605Z,16.80
2017-09-11T17:16:44.773Z,16.70
2017-09-11T17:19:13.126Z,16.60
2017-09-11T17:21:39.297Z,16.70
2017-09-11T17:24:05.506Z,16.70
2017-09-11T17:26:32.429Z,16.30
2017-09-11T17:28:58.581Z,16.30
2017-09-11T17:31:24.752Z,16.40
2017-09-11T17:33:50.925Z,16.30
2017-09-11T17:36:17.077Z,16.20
2017-09-11T17:38:43.502Z,16.30
2017-09-11T17:41:09.665Z,16.00
2017-09-11T17:43:35.853Z,16.00
2017-09-11T17:46:02.028Z,15.90
2017-09-11T17:48:28.962Z,16.00
2017-09-11T17:50:55.398Z,15.90
2017-09-11T17:53:21.755Z,16.10
2017-09-11T17:55:48.239Z,16.10
2017-09-11T17:58:14.613Z,16.10
2017-09-11T18:00:41.017Z,16.10
2017-09-11T18:03:07.372Z,16.20
2017-09-11T18:05:35.421Z,16.00
2017-09-11T18:08:01.733Z,16.10
2017-09-11T18:10:28.109Z,16.10
2017-09-11T18:13:23.563Z,16.10
2017-09-11T18:15:49.944Z,16.20
2017-09-11T18:18:17.067Z,16.00
2017-09-11T18:20:43.211Z,16.00
2017-09-11T18:23:09.683Z,16.00
2017-09-11T18:25:35.940Z,16.00
2017-09-11T18:28:03.027Z,15.90
2017-09-11T18:30:32.455Z,15.90
2017-09-11T18:32:58.842Z,15.90
2017-09-11T18:35:25.168Z,15.80
2017-09-11T18:37:51.570Z,15.80
2017-09-11T18:40:17.921Z,15.80
2017-09-11T18:42:45.049Z,15.70
2017-09-11T18:45:11.381Z,15.70
2017-09-11T18:47:38.446Z,15.80
2017-09-11T18:50:04.805Z,15.80
2017-09-11T18:52:31.189Z,15.40
2017-09-11T18:54:57.523Z,15.50
2017-09-11T18:57:24.249Z,15.50
2017-09-11T18:59:50.586Z,15.50
2017-09-11T19:02:16.979Z,15.60
2017-09-11T19:04:43.341Z,15.50
2017-09-11T19:07:10.257Z,15.60
2017-09-11T19:09:36.702Z,15.70
2017-09-11T19:12:03.145Z,15.50
2017-09-11T19:14:32.631Z,15.50
2017-09-11T19:16:59.025Z,15.50
2017-09-11T19:19:25.372Z,15.50
2017-09-11T19:21:51.724Z,15.50
2017-09-11T19:24:19.300Z,15.30
2017-09-11T19:26:46.409Z,15.30
2017-09-11T19:29:13.561Z,15.20
2017-09-11T19:31:40.037Z,15.20
2017-09-11T19:34:06.417Z,15.20
2017-09-11T19:36:32.767Z,15.10
2017-09-11T19:38:59.162Z,15.10
2017-09-11T19:41:25.576Z,15.20
2017-09-11T19:43:52.050Z,15.20
2017-09-11T19:46:19.879Z,15.20
2017-09-11T19:48:46.229Z,15.30
2017-09-11T19:51:12.638Z,15.30
2017-09-11T19:53:38.990Z,15.30
2017-09-11T19:56:05.351Z,15.20
2017-09-11T19:58:32.340Z,15.30
2017-09-11T20:00:59.377Z,15.30
2017-09-11T20:03:25.529Z,15.30
2017-09-11T20:05:51.762Z,15.30
2017-09-11T20:08:18.150Z,15.40
2017-09-11T20:10:44.387Z,15.30
2017-09-11T20:13:10.580Z,15.30
2017-09-11T20:15:37.597Z,15.30
2017-09-11T20:18:04.570Z,15.30
2017-09-11T20:20:30.861Z,15.30
2017-09-11T20:22:57.023Z,15.30
2017-09-11T20:25:23.211Z,15.30
2017-09-11T20:27:49.391Z,15.30
2017-09-11T20:30:15.566Z,15.40
2017-09-11T20:32:41.743Z,15.40
2017-09-11T20:35:07.853Z,15.30
2017-09-11T20:37:33.982Z,15.70
2017-09-11T20:40:00.222Z,15.30
2017-09-11T20:42:26.568Z,15.30
2017-09-11T20:44:52.881Z,15.20
2017-09-11T20:47:19.951Z,15.30
2017-09-11T20:49:46.327Z,15.30
2017-09-11T20:52:12.647Z,15.20
2017-09-11T20:54:39.795Z,15.20
2017-09-11T20:57:06.145Z,15.20
2017-09-11T20:59:32.545Z,15.70
2017-09-11T21:01:58.894Z,15.30
2017-09-11T21:04:25.627Z,15.30
2017-09-11T21:06:52.074Z,15.30
2017-09-11T21:09:18.493Z,15.20
2017-09-11T21:11:44.822Z,15.30
2017-09-11T21:14:11.569Z,15.20
2017-09-11T21:16:37.899Z,15.30
2017-09-11T21:19:04.375Z,15.80
2017-09-11T21:21:30.723Z,15.20
2017-09-11T21:23:57.062Z,15.20
2017-09-11T21:26:23.418Z,15.20
2017-09-11T21:28:50.539Z,15.20
2017-09-11T21:31:16.842Z,15.20
2017-09-11T21:33:43.951Z,15.10
2017-09-11T21:36:10.279Z,15.10
2017-09-11T21:38:36.720Z,15.50
2017-09-11T21:41:03.042Z,15.20
2017-09-11T21:43:30.494Z,15.20
2017-09-11T21:45:56.898Z,15.20
2017-09-11T21:48:24.023Z,15.20
2017-09-11T21:50:50.370Z,15.20
2017-09-11T21:53:16.733Z,15.10
2017-09-11T21:55:43.115Z,15.40
2017-09-11T21:58:10.191Z,15.20
2017-09-11T22:00:36.531Z,15.20
2017-09-11T22:03:03.683Z,15.30
2017-09-11T22:05:30.007Z,15.30
2017-09-11T22:07:56.331Z,15.30
2017-09-11T22:10:22.671Z,15.30
2017-09-11T22:12:49.024Z,15.20
2017-09-11T22:15:16.117Z,15.40
2017-09-11T22:17:42.461Z,15.60
2017-09-11T22:20:11.836Z,15.30
2017-09-11T22:22:38.591Z,15.60
2017-09-11T22:25:04.819Z,15.40
2017-09-11T22:27:30.985Z,15.30
2017-09-11T22:29:57.871Z,15.30
2017-09-11T22:32:24.006Z,15.30
2017-09-11T22:34:50.141Z,15.40
2017-09-11T22:37:16.279Z,15.30
2017-09-11T22:39:42.451Z,15.40
2017-09-11T22:42:08.589Z,15.40
2017-09-11T22:44:34.942Z,15.20
2017-09-11T22:47:01.330Z,15.40
2017-09-11T22:49:28.479Z,15.40
2017-09-11T22:51:54.860Z,15.40
2017-09-11T22:54:21.249Z,15.20
2017-09-11T22:56:47.556Z,15.30
2017-09-11T22:59:14.304Z,15.30
2017-09-11T23:01:42.041Z,15.00
2017-09-11T23:04:08.394Z,15.20
2017-09-11T23:06:34.727Z,15.20
2017-09-11T23:09:01.846Z,15.30
2017-09-11T23:11:28.025Z,15.30
2017-09-11T23:13:54.161Z,15.20
2017-09-11T23:16:20.303Z,15.40
2017-09-11T23:18:46.438Z,15.50
2017-09-11T23:21:12.776Z,15.30
2017-09-11T23:23:39.109Z,15.40
2017-09-11T23:26:06.191Z,15.20
2017-09-11T23:28:32.356Z,15.20
2017-09-11T23:30:59.226Z,15.30
2017-09-11T23:33:25.378Z,15.30
2017-09-11T23:35:51.523Z,15.20
2017-09-11T23:38:20.464Z,15.10
2017-09-11T23:40:46.686Z,15.10
2017-09-11T23:43:13.291Z,15.30
2017-09-11T23:45:39.450Z,15.20
2017-09-11T23:48:05.631Z,15.50
2017-09-11T23:50:31.815Z,15.30
2017-09-11T23:52:57.969Z,15.20
2017-09-11T23:55:24.202Z,15.30
2017-09-11T23:57:50.362Z,15.20
